Ana Sayfa
METAR-TAF:

METAR-TAF

Havaalanları :

Priştine Uluslararası Havalimanı

Priştine, Kosova

Enlem: 42-34-27N, Boylam: 21-02-09E, yükseklik: 545 m

Güncel hava durumu gözlemi

Rapor saat 21:30 UTC de 25 dakika önce yapıldı.
Rüzgar güney/güneybatıdan 6 kt
Sıcaklık 4°C
Nem 81%
Basınç 993 hPa
Görüş mesafesi 10 km veya daha fazla
1500 m altında bulut yok ve kümülonimbus yok

METAR: BKPR 132130Z 20006KT CAVOK 04/01 Q0993 NOSIG RMK 17010095

Saat: 22:55 (21:55 UTC)

Tahmin

Rapor saat 17:30 UTC de 4 saat ve 25 dakika önce yapıldı.
Ayın 13'si saat 18 UTC'den ayın 14'si saat 18 UTC'ye kadar geçerli Tahmin
Rüzgar değişken yönden 3 kt
Görüş mesafesi 10 km veya daha fazla
5000 ft yükseklikte parçalı bulutlu
15000 ft yükseklikte parçalı çok bulutlu
Olasılık 40% :
Geçici
ayın 14'si saat 01 UTC'den ayın 14'si saat 08 UTC'ye kadar
Görüş mesafesi: 4000 m
hafif yağmur, Pus

TAF: BKPR 131730Z 1318/1418 VRB03KT 9999 SCT050 BKN150 PROB40 TEMPO 1401/1408 4000 -RA BR

4.000'den fazla havaalanı için hava durumu gözlemleri ve tahminleri (METAR ve TAF raporları).

Kullanılabilir istasyonlar harita üzerinde sarı ve kırmızı noktalarla gösterilir.

İstasyonun adını görmek için fareyi noktanın üzerinde gezdirin.

Sonrasında hava gözlem ve tahminlerini görmek için tıklayın.

Haritayı değiştirmek için: yaklaştırmak için siyah artı işaretli yeşil düğmeye ve uzaklaştırmak için de eksi işaretli düğmeye hızla tıklayın; bitişik haritalar için yeşil okları kullanın.


METAR-TAF: